Time;durP1;ratioP1;P1;durP2;ratioP2;P2;SDS_P1;SDS_P2;PMS_P1;PMS_P2;Temp;Humidity;BMP_temperature;BMP_pressure;BME280_temperature;BME280_humidity;BME280_pressure;Samples;Min_cycle;Max_cycle;Signal;HPM_P1;HPM_P2
2022/06/09 00:01:12;;;;;;;6.75;2.90;;;;;;;17.96;36.51;99155.78;5075904;28;20045;-71
2022/06/09 00:03:47;;;;;;;44.72;13.73;;;;;;;17.89;36.52;99158.56;5075616;28;20426;-71
2022/06/09 00:06:15;;;;;;;10.43;5.40;;;;;;;17.84;36.80;99156.09;5076133;28;20067;-71
2022/06/09 00:08:49;;;;;;;9.02;3.25;;;;;;;17.79;36.89;99150.81;5075970;28;20044;-71
2022/06/09 00:11:21;;;;;;;5.80;2.50;;;;;;;17.73;37.18;99144.75;5075474;28;20151;-71
2022/06/09 00:13:49;;;;;;;8.77;3.08;;;;;;;17.65;37.59;99143.06;5075726;28;20052;-71
2022/06/09 00:16:16;;;;;;;8.75;2.97;;;;;;;17.55;37.47;99131.75;5075709;28;20094;-71
2022/06/09 00:18:43;;;;;;;6.57;2.70;;;;;;;17.57;37.61;99140.59;5075685;28;20052;-71
2022/06/09 00:21:11;;;;;;;7.28;2.78;;;;;;;17.53;37.64;99140.56;5075695;28;20131;-72
2022/06/09 00:23:38;;;;;;;6.40;2.95;;;;;;;17.52;37.58;99149.38;5075268;28;20055;-71
2022/06/09 00:26:05;;;;;;;8.52;3.05;;;;;;;17.52;37.54;99150.22;5075671;28;20052;-71
2022/06/09 00:28:32;;;;;;;13.23;2.72;;;;;;;17.50;37.66;99149.00;5075471;28;20048;-71
2022/06/09 00:31:00;;;;;;;8.90;2.78;;;;;;;17.47;37.71;99141.31;5057156;28;20502;-71
2022/06/09 00:33:28;;;;;;;6.68;2.80;;;;;;;17.43;37.97;99140.44;5075314;28;20067;-71
2022/06/09 00:35:56;;;;;;;7.53;2.22;;;;;;;17.40;38.38;99132.78;5075305;28;20084;-71
2022/06/09 00:38:23;;;;;;;13.10;2.70;;;;;;;17.36;38.35;99135.56;5075205;28;20504;-69
2022/06/09 00:40:50;;;;;;;8.60;2.70;;;;;;;17.35;38.37;99130.34;5075211;28;20568;-72
2022/06/09 00:43:17;;;;;;;8.55;2.67;;;;;;;17.33;38.13;99139.16;5075324;28;20106;-71
2022/06/09 00:45:52;;;;;;;10.57;3.55;;;;;;;17.32;38.34;99131.91;5075127;28;20450;-72
2022/06/09 00:48:34;;;;;;;6.30;2.35;;;;;;;17.29;38.36;99129.06;5057337;28;20044;-71
2022/06/09 00:51:10;;;;;;;15.45;2.72;;;;;;;17.24;38.52;99137.84;5075119;28;20144;-71
2022/06/09 00:53:40;;;;;;;8.68;2.78;;;;;;;17.21;38.42;99131.00;5054925;28;20139;-71
2022/06/09 00:56:12;;;;;;;9.30;2.88;;;;;;;17.19;38.85;99135.38;5055621;28;20079;-72
2022/06/09 00:58:43;;;;;;;6.05;2.78;;;;;;;17.17;38.88;99129.34;5054799;28;20052;-72
2022/06/09 01:01:13;;;;;;;12.77;3.20;;;;;;;17.14;39.24;99130.13;5054869;28;20077;-72
2022/06/09 01:03:49;;;;;;;8.35;3.00;;;;;;;17.11;39.20;99131.69;5054296;28;20084;-71
2022/06/09 01:06:21;;;;;;;8.13;2.63;;;;;;;17.09;39.53;99122.84;5054758;28;20149;-70
2022/06/09 01:09:08;;;;;;;6.85;2.50;;;;;;;17.06;39.32;99129.25;5054630;28;20381;-72
2022/06/09 01:11:36;;;;;;;7.18;2.83;;;;;;;17.05;39.86;99129.63;5054255;28;20118;-72
2022/06/09 01:14:05;;;;;;;7.25;2.33;;;;;;;17.04;39.76;99134.44;5063893;28;20530;-72
2022/06/09 01:16:42;;;;;;;9.05;2.42;;;;;;;17.05;39.89;99130.41;5074620;28;20420;-72
2022/06/09 01:19:23;;;;;;;7.30;2.50;;;;;;;17.06;39.88;99131.25;5074492;28;20496;-68
2022/06/09 01:21:50;;;;;;;7.53;3.03;;;;;;;17.02;39.83;99131.19;5074426;28;20056;-68
2022/06/09 01:24:35;;;;;;;7.38;2.38;;;;;;;17.02;40.22;99136.03;5074236;28;20525;-71
2022/06/09 01:27:30;;;;;;;5.53;2.40;;;;;;;17.00;39.83;99130.78;5074574;28;20087;-71
2022/06/09 01:30:00;;;;;;;9.57;3.05;;;;;;;16.99;39.90;99137.59;5073986;28;20054;-71
2022/06/09 01:32:52;;;;;;;6.28;2.50;;;;;;;17.00;40.41;99133.59;5074271;28;20131;-72
2022/06/09 01:35:35;;;;;;;8.43;2.58;;;;;;;16.98;40.27;99133.16;5060488;28;20071;-71
2022/06/09 01:38:03;;;;;;;4.85;2.42;;;;;;;16.99;40.23;99125.56;5074196;28;20090;-73
2022/06/09 01:40:30;;;;;;;5.65;2.53;;;;;;;16.98;40.61;99133.16;5073770;28;20055;-73
2022/06/09 01:42:59;;;;;;;4.28;2.20;;;;;;;16.96;40.81;99127.13;5073933;28;20159;-72
2022/06/09 01:46:04;;;;;;;4.70;2.60;;;;;;;16.95;41.01;99130.31;5073874;28;20056;-73
2022/06/09 01:48:32;;;;;;;8.02;2.30;;;;;;;16.92;41.39;99125.47;5055871;28;20423;-72
2022/06/09 01:51:07;;;;;;;6.70;2.60;;;;;;;16.96;41.16;99137.56;5073842;28;20561;-73
2022/06/09 01:53:46;;;;;;;6.63;2.58;;;;;;;16.97;41.74;99130.75;5053771;28;20087;-73
2022/06/09 01:56:19;;;;;;;11.18;2.70;;;;;;;16.96;41.39;99126.31;5053746;28;20053;-72
2022/06/09 01:58:51;;;;;;;14.63;2.63;;;;;;;16.97;41.54;99125.13;5053636;28;20523;-72
2022/06/09 02:01:22;;;;;;;5.82;2.65;;;;;;;17.00;41.77;99135.59;5053693;28;20415;-72
2022/06/09 02:03:56;;;;;;;7.47;2.78;;;;;;;17.01;42.35;99128.78;5053398;28;20068;-71
2022/06/09 02:06:24;;;;;;;10.10;3.03;;;;;;;17.00;42.46;99125.16;5053449;28;20143;-69
2022/06/09 02:08:52;;;;;;;8.57;2.67;;;;;;;17.04;42.46;99125.19;5053386;28;20051;-69
2022/06/09 02:11:20;;;;;;;5.10;2.75;;;;;;;17.04;42.61;99128.00;5053752;28;20143;-68
2022/06/09 02:13:51;;;;;;;6.40;2.70;;;;;;;17.08;42.96;99128.88;5053573;28;20139;-69
2022/06/09 02:16:21;;;;;;;7.47;2.90;;;;;;;17.09;43.13;99124.84;5053078;28;20071;-68
2022/06/09 02:19:09;;;;;;;9.80;2.83;;;;;;;17.10;43.29;99132.06;5038618;28;20081;-68
2022/06/09 02:21:37;;;;;;;8.43;3.10;;;;;;;17.12;43.20;99124.91;5071579;28;20048;-67
2022/06/09 02:24:05;;;;;;;8.30;2.78;;;;;;;17.15;43.53;99128.94;5073180;28;20075;-68
2022/06/09 02:26:32;;;;;;;6.63;2.97;;;;;;;17.20;43.27;99131.41;5073195;28;20518;-69
2022/06/09 02:29:00;;;;;;;12.13;2.72;;;;;;;17.24;43.92;99137.84;5072985;28;20518;-69
2022/06/09 02:31:27;;;;;;;7.70;2.75;;;;;;;17.25;43.85;99128.22;5073133;28;20052;-69
2022/06/09 02:33:54;;;;;;;5.57;2.80;;;;;;;17.28;44.08;99127.44;5073071;28;20052;-69
2022/06/09 02:36:22;;;;;;;6.20;2.55;;;;;;;17.31;43.89;99133.09;5073114;28;20569;-69
2022/06/09 02:38:48;;;;;;;6.95;2.90;;;;;;;17.32;44.30;99140.34;5073218;28;20496;-69
2022/06/09 02:41:17;;;;;;;6.15;2.92;;;;;;;17.34;44.74;99134.31;5067551;28;20127;-69
2022/06/09 02:43:44;;;;;;;12.68;3.20;;;;;;;17.34;45.18;99131.50;5052922;28;20049;-70
2022/06/09 02:46:11;;;;;;;10.77;3.10;;;;;;;17.35;45.32;99133.16;5053015;28;20052;-71
2022/06/09 02:48:40;;;;;;;8.15;2.97;;;;;;;17.33;45.42;99129.91;5052862;28;20067;-72
2022/06/09 02:51:40;;;;;;;9.35;2.92;;;;;;;17.31;46.00;99132.28;5052585;28;20051;-71
2022/06/09 02:54:12;;;;;;;5.38;2.90;;;;;;;17.33;46.06;99129.91;5034459;28;20056;-71
2022/06/09 02:56:41;;;;;;;7.80;2.72;;;;;;;17.35;46.43;99138.78;5052782;28;20055;-72
2022/06/09 02:59:10;;;;;;;9.65;3.08;;;;;;;17.35;46.26;99139.56;5052672;28;20055;-72
2022/06/09 03:01:36;;;;;;;11.48;3.20;;;;;;;17.41;46.37;99140.03;5052718;28;20547;-72
2022/06/09 03:04:05;;;;;;;8.88;3.25;;;;;;;17.43;46.73;99141.28;5052347;28;20152;-72
2022/06/09 03:06:33;;;;;;;10.50;2.75;;;;;;;17.47;46.86;99135.69;5057955;28;20127;-71
2022/06/09 03:09:00;;;;;;;13.65;3.42;;;;;;;17.50;46.94;99146.19;5072381;28;20418;-72
2022/06/09 03:11:27;;;;;;;7.72;3.33;;;;;;;17.54;47.19;99135.75;5072571;28;20132;-71
2022/06/09 03:13:54;;;;;;;6.65;3.40;;;;;;;17.61;47.04;99135.81;5072839;28;20143;-72
2022/06/09 03:16:21;;;;;;;20.67;3.90;;;;;;;17.63;47.09;99127.78;5072975;28;20055;-73
2022/06/09 03:18:49;;;;;;;20.95;4.95;;;;;;;17.78;47.10;99137.97;5072504;28;20051;-72
2022/06/09 03:21:16;;;;;;;12.05;3.67;;;;;;;17.85;46.65;99135.19;5072573;28;20574;-71
2022/06/09 03:23:43;;;;;;;12.63;5.00;;;;;;;17.93;46.54;99142.50;5072992;28;20063;-70
2022/06/09 03:26:10;;;;;;;6.70;3.38;;;;;;;18.00;46.54;99126.47;5072783;28;20056;-72
2022/06/09 03:28:37;;;;;;;15.55;4.45;;;;;;;18.12;46.39;99142.25;5054756;28;20135;-71
2022/06/09 03:31:04;;;;;;;17.58;4.55;;;;;;;18.21;46.62;99143.50;5072357;28;20041;-72
2022/06/09 03:33:31;;;;;;;9.15;3.88;;;;;;;18.29;46.36;99144.34;5074231;28;20056;-72
2022/06/09 03:35:58;;;;;;;12.80;4.90;;;;;;;18.40;45.96;99142.44;5076574;28;20048;-72
2022/06/09 03:38:25;;;;;;;18.33;4.75;;;;;;;18.52;45.57;99142.09;5076406;28;20067;-73
2022/06/09 03:40:52;;;;;;;12.25;4.10;;;;;;;18.73;45.42;99142.19;5076188;28;20048;-72
2022/06/09 03:43:19;;;;;;;15.23;4.50;;;;;;;19.00;44.92;99143.50;5076300;28;20091;-71
2022/06/09 03:45:46;;;;;;;11.88;4.28;;;;;;;19.19;44.93;99143.13;5076260;28;20143;-72
2022/06/09 03:48:13;;;;;;;11.02;4.55;;;;;;;19.38;44.73;99140.00;5076519;28;20444;-71
2022/06/09 03:50:40;;;;;;;14.63;4.00;;;;;;;19.53;44.62;99135.97;5076150;28;20079;-71
2022/06/09 03:53:07;;;;;;;14.02;4.80;;;;;;;19.67;44.50;99141.63;5076198;28;20049;-71
2022/06/09 03:55:35;;;;;;;13.63;4.25;;;;;;;19.72;44.66;99132.75;5076028;28;20150;-70
2022/06/09 03:58:03;;;;;;;11.48;4.85;;;;;;;19.77;44.40;99143.63;5076039;28;20052;-72
2022/06/09 04:00:31;;;;;;;13.13;4.60;;;;;;;19.86;43.81;99135.56;5075980;28;20048;-71
2022/06/09 04:02:59;;;;;;;12.73;5.28;;;;;;;19.96;43.71;99134.75;5075921;28;20076;-72
2022/06/09 04:05:27;;;;;;;11.75;4.07;;;;;;;20.11;43.19;99143.22;5057512;28;20155;-70
2022/06/09 04:07:55;;;;;;;12.32;4.55;;;;;;;20.23;42.78;99140.00;5076468;28;20483;-71
2022/06/09 04:10:25;;;;;;;12.95;4.68;;;;;;;20.33;42.27;99139.16;5075664;28;20165;-72
2022/06/09 04:12:52;;;;;;;18.55;5.13;;;;;;;20.45;42.13;99135.91;5076054;28;20051;-71
2022/06/09 04:15:20;;;;;;;11.73;4.70;;;;;;;20.65;41.33;99139.88;5075903;28;20052;-71
2022/06/09 04:17:47;;;;;;;19.58;5.60;;;;;;;20.87;40.23;99135.75;5075717;28;20147;-71
2022/06/09 04:20:17;;;;;;;9.35;5.18;;;;;;;21.06;39.21;99132.44;5075232;28;20049;-71
2022/06/09 04:22:44;;;;;;;15.88;5.43;;;;;;;21.25;39.07;99129.09;5076019;28;20147;-71
2022/06/09 04:25:17;;;;;;;8.57;4.88;;;;;;;21.38;39.24;99133.84;5075580;28;20131;-71
2022/06/09 04:27:45;;;;;;;12.05;5.85;;;;;;;21.54;38.09;99131.34;5058198;28;20548;-71
2022/06/09 04:30:13;;;;;;;18.00;5.70;;;;;;;21.72;38.04;99125.53;5075205;28;20059;-72
2022/06/09 04:32:40;;;;;;;22.75;5.68;;;;;;;21.89;37.87;99124.59;5075378;28;20058;-71
2022/06/09 04:35:07;;;;;;;14.77;5.22;;;;;;;22.10;37.76;99130.06;5057094;28;20056;-71
2022/06/09 04:40:20;;;;;;;17.52;5.40;;;;;;;22.41;37.48;99134.59;5075043;28;20139;-72
2022/06/09 04:42:47;;;;;;;15.05;5.25;;;;;;;22.60;36.83;99128.34;5057526;28;20139;-71
2022/06/09 04:45:14;;;;;;;25.80;6.25;;;;;;;22.79;36.23;99132.56;5054378;28;20084;-71
2022/06/09 04:47:41;;;;;;;12.55;5.90;;;;;;;22.92;35.44;99137.25;5054896;28;20053;-71
2022/06/09 04:50:10;;;;;;;17.35;5.70;;;;;;;23.06;34.74;99141.94;5054747;28;20048;-70
2022/06/09 04:52:37;;;;;;;11.07;5.93;;;;;;;23.22;34.17;99140.13;5054852;28;20076;-71
2022/06/09 04:55:06;;;;;;;9.88;5.18;;;;;;;23.61;33.72;99144.41;5054810;28;20107;-71
2022/06/09 04:57:33;;;;;;;12.32;5.82;;;;;;;23.92;33.64;99138.22;5054821;28;20087;-72
2022/06/09 05:00:00;;;;;;;15.70;5.35;;;;;;;23.98;33.38;99138.59;5054735;28;20041;-72
2022/06/09 05:02:29;;;;;;;10.70;4.05;;;;;;;24.03;32.84;99146.59;5054958;28;20140;-72
2022/06/09 05:04:56;;;;;;;11.10;4.38;;;;;;;24.27;31.82;99145.34;5054440;28;20056;-72
2022/06/09 05:07:23;;;;;;;13.85;5.15;;;;;;;24.50;31.48;99139.63;5054783;28;20048;-72
2022/06/09 05:09:50;;;;;;;17.10;4.97;;;;;;;24.53;31.25;99144.47;5067154;28;20144;-72
2022/06/09 05:12:17;;;;;;;13.65;5.03;;;;;;;24.57;31.06;99145.22;5074704;28;20049;-71
2022/06/09 05:14:44;;;;;;;11.27;5.25;;;;;;;24.63;31.34;99138.56;5074424;28;20071;-71
2022/06/09 05:17:11;;;;;;;11.70;4.13;;;;;;;24.76;31.19;99139.56;5056386;28;20064;-71
2022/06/09 05:19:38;;;;;;;14.38;3.78;;;;;;;24.85;30.74;99145.47;5074161;28;20055;-71
2022/06/09 05:22:06;;;;;;;12.90;3.90;;;;;;;24.94;30.95;99147.72;5074826;28;20411;-72
2022/06/09 05:24:33;;;;;;;10.68;4.90;;;;;;;25.10;30.68;99139.22;5074373;28;20044;-72
2022/06/09 05:27:00;;;;;;;9.77;4.13;;;;;;;25.29;30.66;99138.44;5074334;28;20127;-72
2022/06/09 05:29:27;;;;;;;10.93;3.90;;;;;;;25.46;30.23;99145.78;5073936;28;20052;-71
2022/06/09 05:31:54;;;;;;;9.85;3.53;;;;;;;25.67;29.91;99139.59;5074043;28;20044;-71
2022/06/09 05:34:21;;;;;;;5.43;2.70;;;;;;;25.88;29.19;99139.09;5055800;28;20147;-72
2022/06/09 05:36:48;;;;;;;16.23;3.25;;;;;;;26.02;28.79;99138.72;5074016;28;20075;-72
2022/06/09 05:44:50;;;;;;;8.27;2.75;;;;;;;26.30;27.44;99140.06;5053819;28;20149;-72
2022/06/09 05:47:22;;;;;;;9.88;3.20;;;;;;;26.49;26.91;99139.94;5053888;28;20061;-72
2022/06/09 05:49:50;;;;;;;9.27;3.10;;;;;;;26.66;27.08;99141.53;5053612;28;20049;-72
2022/06/09 05:52:22;;;;;;;6.88;2.35;;;;;;;26.75;26.24;99138.81;5054123;28;20096;-71
2022/06/09 05:54:51;;;;;;;11.00;2.88;;;;;;;26.86;26.08;99140.56;5053668;28;20045;-71
2022/06/09 05:57:20;;;;;;;6.18;3.00;;;;;;;27.04;26.21;99132.28;5053393;28;20151;-71
2022/06/09 05:59:48;;;;;;;5.72;3.20;;;;;;;27.22;26.13;99130.50;5053381;28;20052;-69
2022/06/09 06:02:18;;;;;;;16.10;3.67;;;;;;;27.51;25.43;99130.44;5053658;28;20522;-68
2022/06/09 06:04:45;;;;;;;;;;;;;;;27.84;25.28;99137.53;5053418;28;20068;-68
2022/06/09 06:07:13;;;;;;;8.90;2.65;;;;;;;28.58;24.35;99130.09;5053266;28;19924;-68
2022/06/09 06:09:40;;;;;;;6.65;3.25;;;;;;;29.88;22.25;99125.06;5068957;28;20545;-70
2022/06/09 06:12:07;;;;;;;3.90;2.50;;;;;;;32.45;19.36;99131.16;5073093;28;20059;-69
2022/06/09 06:14:35;;;;;;;3.72;1.80;;;;;;;36.39;15.49;99132.94;5073092;28;20068;-69
2022/06/09 06:17:03;;;;;;;6.82;2.20;;;;;;;37.59;13.89;99127.31;5073388;28;20151;-69
2022/06/09 06:19:30;;;;;;;5.55;2.40;;;;;;;35.49;15.05;99119.56;5073304;28;20098;-69
2022/06/09 06:21:57;;;;;;;4.55;2.58;;;;;;;34.44;15.83;99124.06;5055937;28;20105;-69
2022/06/09 06:24:27;;;;;;;7.63;2.90;;;;;;;33.80;15.55;99126.19;5055767;28;20139;-69
2022/06/09 06:26:54;;;;;;;12.43;3.03;;;;;;;32.29;17.00;99129.47;5072844;28;20044;-69
2022/06/09 06:29:24;;;;;;;7.63;2.50;;;;;;;30.98;18.39;99134.19;5072874;28;20063;-69
2022/06/09 06:31:51;;;;;;;10.75;3.70;;;;;;;29.77;19.03;99130.44;5072881;28;20487;-69
2022/06/09 06:34:19;;;;;;;4.35;2.00;;;;;;;29.19;19.74;99123.75;5055020;28;20052;-69
2022/06/09 06:36:46;;;;;;;9.48;1.63;;;;;;;28.83;19.79;99124.25;5072941;28;20046;-69
2022/06/09 06:39:14;;;;;;;12.32;1.85;;;;;;;28.87;19.42;99124.94;5072933;28;20110;-69
2022/06/09 06:41:41;;;;;;;7.32;2.05;;;;;;;28.79;19.62;99126.47;5072898;28;20075;-69
2022/06/09 06:44:09;;;;;;;7.88;2.33;;;;;;;29.30;19.26;99129.84;5072809;28;20146;-69
2022/06/09 06:46:36;;;;;;;11.52;2.10;;;;;;;30.41;18.19;99128.56;5072771;28;20158;-69
2022/06/09 06:49:04;;;;;;;12.60;3.08;;;;;;;31.56;17.10;99123.22;5054381;28;20140;-69
2022/06/09 06:51:32;;;;;;;4.47;2.22;;;;;;;35.66;14.35;99127.06;5054847;28;20048;-69
2022/06/09 06:53:59;;;;;;;4.18;2.05;;;;;;;40.27;10.99;99122.19;5072639;28;20467;-69
2022/06/09 06:56:26;;;;;;;6.63;2.03;;;;;;;43.67;9.07;99119.03;5072713;28;20074;-70
2022/06/09 06:58:53;;;;;;;5.78;2.10;;;;;;;46.38;7.84;99125.03;5072409;28;20082;-69
2022/06/09 07:01:20;;;;;;;7.72;2.20;;;;;;;48.47;6.67;99126.88;5054785;28;20049;-69
2022/06/09 07:03:47;;;;;;;4.35;1.63;;;;;;;50.08;5.79;99120.75;5072305;28;20507;-69
2022/06/09 07:06:14;;;;;;;8.68;3.28;;;;;;;51.03;5.04;99121.00;5072339;28;20051;-69
2022/06/09 07:08:41;;;;;;;12.00;2.58;;;;;;;51.16;4.83;99125.69;5072167;28;20044;-70
2022/06/09 07:11:09;;;;;;;8.45;2.00;;;;;;;51.58;4.73;99122.25;5055194;28;20052;-70
2022/06/09 07:13:36;;;;;;;5.85;2.03;;;;;;;52.71;4.31;99113.53;5072541;28;20052;-70
2022/06/09 07:16:07;;;;;;;11.35;2.13;;;;;;;53.62;3.30;99124.34;5072502;28;20059;-69
2022/06/09 07:18:54;;;;;;;14.35;2.40;;;;;;;54.19;3.25;99117.75;5072318;28;20048;-69
2022/06/09 07:21:21;;;;;;;6.40;2.30;;;;;;;54.06;3.32;99115.41;5072591;28;20045;-70
2022/06/09 07:23:48;;;;;;;8.82;2.50;;;;;;;53.65;3.06;99117.91;5072165;28;20101;-69
2022/06/09 07:26:14;;;;;;;;;;;;;;;54.22;3.64;99110.53;5073018;28;20052;-69
2022/06/09 07:28:42;;;;;;;14.43;2.85;;;;;;;55.53;2.97;99120.22;5072645;28;20004;-71
2022/06/09 07:31:09;;;;;;;9.88;2.47;;;;;;;56.34;2.49;99121.91;5072218;28;20128;-73
2022/06/09 07:33:37;;;;;;;9.25;2.55;;;;;;;56.88;2.15;99125.66;5072285;28;20139;-72
2022/06/09 07:36:07;;;;;;;6.10;2.65;;;;;;;57.06;2.00;99123.66;5071961;28;20139;-65
2022/06/09 07:38:34;;;;;;;4.85;2.70;;;;;;;56.96;2.56;99123.16;5072418;28;20048;-64
2022/06/09 07:41:03;;;;;;;8.35;3.42;;;;;;;56.79;2.08;99123.69;5072520;28;20052;-65
2022/06/09 07:43:50;;;;;;;8.52;2.85;;;;;;;57.33;1.97;99119.84;5072113;28;20060;-65
2022/06/09 07:46:17;;;;;;;5.95;2.85;;;;;;;58.14;1.55;99119.50;5054720;28;20052;-65
2022/06/09 07:48:45;;;;;;;11.48;2.92;;;;;;;57.85;1.93;99116.53;5071954;28;20463;-64
2022/06/09 07:51:15;;;;;;;7.20;2.13;;;;;;;57.65;1.89;99109.53;5072003;28;20048;-64
2022/06/09 07:53:42;;;;;;;6.25;2.60;;;;;;;57.29;1.99;99119.63;5071912;28;20143;-65
2022/06/09 07:56:10;;;;;;;6.38;2.80;;;;;;;56.77;2.12;99116.84;5072152;28;20049;-65
2022/06/09 07:58:37;;;;;;;9.30;2.67;;;;;;;57.04;1.71;99116.81;5072247;28;20052;-65
2022/06/09 08:01:04;;;;;;;4.13;2.75;;;;;;;57.46;1.83;99110.03;5071988;28;20499;-65
2022/06/09 08:03:33;;;;;;;4.22;2.33;;;;;;;58.29;1.14;99108.94;5071636;28;20423;-64
2022/06/09 08:06:00;;;;;;;6.13;2.55;;;;;;;58.75;1.21;99114.13;5071924;28;20060;-64
2022/06/09 08:08:47;;;;;;;10.75;2.60;;;;;;;58.17;1.47;99106.16;5071753;28;20082;-64
2022/06/09 08:11:14;;;;;;;5.10;2.58;;;;;;;57.97;1.18;99105.16;5071458;28;20044;-64
2022/06/09 08:13:40;;;;;;;10.35;2.53;;;;;;;57.81;1.90;99104.38;5053701;28;20052;-64
2022/06/09 08:16:08;;;;;;;8.05;2.50;;;;;;;58.41;0.76;99109.53;5071789;28;20055;-65
2022/06/09 08:18:35;;;;;;;5.78;2.47;;;;;;;58.93;1.31;99105.16;5071240;28;20049;-65
2022/06/09 08:21:03;;;;;;;57.83;28.45;;;;;;;58.71;1.70;99110.19;5073856;28;20051;-66
2022/06/09 08:23:47;;;;;;;5.68;2.22;;;;;;;58.67;0.90;99099.53;5075415;28;20052;-64
2022/06/09 08:26:14;;;;;;;8.52;2.60;;;;;;;58.97;1.42;99103.16;5075202;28;20106;-64
2022/06/09 08:28:42;;;;;;;2.63;2.17;;;;;;;59.28;1.45;99108.28;5075048;28;20514;-64
2022/06/09 08:31:09;;;;;;;2.72;2.08;;;;;;;59.57;0.57;99108.78;5074819;28;20054;-65
2022/06/09 08:33:36;;;;;;;6.97;2.30;;;;;;;59.56;0.61;99103.47;5074885;28;20105;-64
2022/06/09 08:36:04;;;;;;;4.22;2.35;;;;;;;59.30;0.75;99099.34;5074900;28;20052;-65
2022/06/09 08:38:31;;;;;;;5.63;2.70;;;;;;;59.56;0.78;99098.25;5075165;28;20088;-64
2022/06/09 08:41:17;;;;;;;5.35;2.40;;;;;;;59.86;0.52;99101.72;5073943;28;20484;-64
2022/06/09 08:44:13;;;;;;;7.75;2.20;;;;;;;59.77;0.65;99105.84;5073405;28;20103;-65
2022/06/09 08:47:01;;;;;;;9.57;2.33;;;;;;;60.45;0.55;99098.84;5074619;28;20048;-66
2022/06/09 08:49:35;;;;;;;4.18;2.53;;;;;;;60.93;0.15;99106.69;5074228;28;20139;-65
2022/06/09 08:52:13;;;;;;;10.75;4.03;;;;;;;61.15;0.38;99105.25;5075226;28;20052;-64
2022/06/09 08:54:40;;;;;;;2.90;2.60;;;;;;;60.52;0.29;99101.41;5074667;28;20058;-64
2022/06/09 08:57:17;;;;;;;4.03;2.45;;;;;;;60.28;0.43;99099.66;5073535;28;20044;-64
2022/06/09 08:59:52;;;;;;;5.18;2.80;;;;;;;60.62;0.87;99091.94;5072940;28;20058;-64
2022/06/09 09:02:39;;;;;;;7.20;3.05;;;;;;;60.98;0.22;99100.13;5074791;28;20095;-65
2022/06/09 09:05:19;;;;;;;3.65;2.63;;;;;;;61.28;0.14;99086.16;5071648;28;20139;-64
2022/06/09 09:08:00;;;;;;;9.63;2.70;;;;;;;61.64;0.69;99087.38;5073744;28;20049;-63
2022/06/09 09:10:52;;;;;;;4.03;2.80;;;;;;;61.22;0.11;99082.16;5054490;28;20526;-65
2022/06/09 09:13:35;;;;;;;7.35;3.05;;;;;;;61.44;0.79;99082.91;5071815;28;20458;-66
2022/06/09 09:16:15;;;;;;;8.23;2.90;;;;;;;61.44;0.15;99073.88;5072517;28;20136;-62
2022/06/09 09:18:45;;;;;;;5.05;2.70;;;;;;;61.80;0.14;99074.34;5070633;28;20415;-63
2022/06/09 09:21:12;;;;;;;6.65;3.25;;;;;;;62.14;0.77;99066.41;5060272;28;20053;-65
2022/06/09 09:23:46;;;;;;;3.90;2.97;;;;;;;61.97;0.03;99073.38;5064788;28;20076;-67
2022/06/09 09:26:48;;;;;;;36.17;6.55;;;;;;;61.78;1.16;99071.28;5071596;28;20055;-65
2022/06/09 09:29:45;;;;;;;3.30;3.00;;;;;;;61.32;0.64;99067.44;5040428;28;20136;-62
2022/06/09 09:33:56;;;;;;;8.37;2.90;;;;;;;61.07;0.63;99062.81;5067787;28;20431;-63
2022/06/09 09:36:27;;;;;;;2.92;2.33;;;;;;;56.31;2.52;99054.47;5069923;28;20110;-62
2022/06/09 09:39:01;;;;;;;4.60;2.17;;;;;;;50.74;4.43;99057.19;5046697;28;20114;-64
2022/06/09 09:41:34;;;;;;;5.68;2.00;;;;;;;46.56;6.41;99042.81;5029957;28;20079;-64
2022/06/09 09:44:19;;;;;;;3.90;2.00;;;;;;;43.22;8.21;99032.19;5028677;28;20562;-65
2022/06/09 09:46:52;;;;;;;4.55;1.95;;;;;;;40.79;9.83;99041.00;5035252;28;20531;-64
2022/06/09 09:49:43;;;;;;;4.47;1.35;;;;;;;38.62;11.22;99034.69;5039731;28;20053;-64
2022/06/09 09:52:54;;;;;;;6.25;1.60;;;;;;;36.77;11.73;99029.28;5048638;28;20132;-63
2022/06/09 09:55:27;;;;;;;4.35;1.83;;;;;;;35.95;12.92;99030.44;5025308;28;20042;-61
2022/06/09 09:58:16;;;;;;;2.88;1.70;;;;;;;35.30;13.14;99028.59;5026338;28;20038;-61
2022/06/09 10:00:45;;;;;;;42.47;17.77;;;;;;;34.50;13.79;99021.72;5027246;28;20505;-62
2022/06/09 10:09:23;;;;;;;4.93;1.77;;;;;;;33.03;15.83;99022.59;5027024;28;20117;-63
2022/06/09 10:12:11;;;;;;;3.88;1.83;;;;;;;32.74;16.21;99019.66;5026910;28;20041;-73
2022/06/09 10:15:05;;;;;;;6.45;1.88;;;;;;;32.51;16.63;99008.22;5026941;28;20052;-74
2022/06/09 10:17:55;;;;;;;4.70;1.90;;;;;;;32.20;17.00;99023.00;5026802;28;20041;-75
2022/06/09 10:21:00;;;;;;;6.97;2.50;;;;;;;31.72;17.24;99015.63;5010359;28;20497;-76
2022/06/09 10:23:45;;;;;;;4.60;1.90;;;;;;;31.53;17.21;99014.13;5026750;28;20068;-73
2022/06/09 10:26:18;;;;;;;3.95;1.60;;;;;;;31.56;17.25;99019.69;5027804;28;20057;-73
2022/06/09 10:28:48;;;;;;;8.60;2.00;;;;;;;31.50;17.69;99020.88;5029010;28;20053;-75
2022/06/09 10:31:43;;;;;;;4.45;2.13;;;;;;;31.28;17.96;99020.28;5028799;28;20054;-76
2022/06/09 10:34:19;;;;;;;5.47;2.20;;;;;;;31.18;17.96;99024.47;5029080;28;20408;-74
2022/06/09 10:36:46;;;;;;;3.85;1.88;;;;;;;31.03;18.09;99023.56;5028993;28;20077;-74
2022/06/09 10:39:18;;;;;;;4.03;1.77;;;;;;;30.73;18.39;99025.34;5029638;28;20045;-75
2022/06/09 10:41:56;;;;;;;3.45;1.77;;;;;;;30.54;18.92;99017.22;5028987;28;20060;-74
2022/06/09 10:44:32;;;;;;;3.83;1.90;;;;;;;30.37;18.96;99013.13;5020512;28;20089;-75
2022/06/09 10:56:30;;;;;;;3.63;2.80;;;;;;;29.93;19.74;99001.88;5035215;28;20041;-76
2022/06/09 10:59:07;;;;;;;7.72;1.77;;;;;;;29.90;19.63;99002.84;5017126;28;20490;-74
2022/06/09 11:01:36;;;;;;;9.43;2.13;;;;;;;29.90;19.92;99002.06;5015942;28;20562;-75
2022/06/09 11:04:06;;;;;;;7.57;1.92;;;;;;;29.88;20.14;98993.94;5015394;28;20493;-75
2022/06/09 11:07:11;;;;;;;7.45;1.98;;;;;;;29.87;20.06;98998.06;5015230;28;20608;-75
2022/06/09 11:10:00;;;;;;;3.92;1.88;;;;;;;29.71;20.13;98992.63;5015045;28;20092;-74
2022/06/09 11:12:40;;;;;;;6.25;1.77;;;;;;;29.51;20.64;98997.94;5015054;28;20046;-75
2022/06/09 11:15:36;;;;;;;4.50;2.00;;;;;;;29.55;21.08;98990.00;5014755;28;20050;-76
2022/06/09 11:18:12;;;;;;;8.05;2.17;;;;;;;29.59;20.75;98984.91;5014112;28;20156;-75
2022/06/09 11:20:42;;;;;;;10.10;2.40;;;;;;;29.61;21.12;98985.25;5015267;28;20053;-75
2022/06/09 11:23:36;;;;;;;6.95;2.10;;;;;;;29.71;20.55;98988.94;5014059;28;20268;-71
2022/06/09 11:26:21;;;;;;;5.55;1.98;;;;;;;29.71;20.69;98984.03;5022097;28;20072;-71
2022/06/09 11:29:07;;;;;;;4.00;1.90;;;;;;;29.69;20.63;98989.41;5019859;28;20137;-70
2022/06/09 11:32:05;;;;;;;9.00;2.15;;;;;;;29.64;21.15;98995.81;5034276;28;20500;-68
2022/06/09 11:34:47;;;;;;;3.60;2.10;;;;;;;29.52;20.72;98993.03;5023062;28;20060;-69
2022/06/09 11:37:30;;;;;;;3.25;1.83;;;;;;;29.56;20.96;98991.59;5015003;28;20523;-69
2022/06/09 11:40:29;;;;;;;7.03;2.17;;;;;;;29.62;20.55;98986.88;5014354;28;20068;-71
2022/06/09 11:43:13;;;;;;;4.50;2.20;;;;;;;29.61;20.28;98985.25;5027471;28;20457;-71
2022/06/09 11:45:50;;;;;;;3.93;2.07;;;;;;;29.62;20.81;98986.88;5031388;28;20431;-71
2022/06/09 11:48:24;;;;;;;6.60;2.20;;;;;;;29.55;20.91;98984.28;5014414;28;20058;-70
2022/06/09 11:50:53;;;;;;;4.88;2.20;;;;;;;29.43;21.54;98978.66;5014443;28;20058;-70
2022/06/09 11:53:28;;;;;;;3.90;2.10;;;;;;;29.27;21.80;98981.78;5027945;28;20136;-72
2022/06/09 11:56:45;;;;;;;3.75;1.92;;;;;;;29.21;21.73;98984.47;5033142;28;20133;-72
2022/06/09 11:59:11;;;;;;;9.70;2.15;;;;;;;29.21;21.93;98975.88;5033904;28;20049;-72
2022/06/09 12:01:38;;;;;;;6.78;2.78;;;;;;;29.18;22.22;98985.41;5034008;28;20468;-71
2022/06/09 12:04:13;;;;;;;9.35;2.20;;;;;;;29.15;22.34;98968.34;5033825;28;20412;-72
2022/06/09 12:07:10;;;;;;;3.55;2.17;;;;;;;29.13;22.99;98968.84;5033484;28;20056;-72
2022/06/09 12:09:55;;;;;;;9.10;2.22;;;;;;;29.29;22.39;98967.78;5031854;28;20532;-71
2022/06/09 12:12:30;;;;;;;4.40;2.40;;;;;;;29.32;22.59;98970.50;5030704;28;20042;-71
2022/06/09 12:15:25;;;;;;;8.38;2.40;;;;;;;29.26;22.33;98969.53;5015184;28;20058;-73
2022/06/09 12:18:24;;;;;;;5.13;1.98;;;;;;;29.33;22.56;98974.97;5017495;28;20054;-69
2022/06/09 12:20:52;;;;;;;3.42;2.30;;;;;;;29.37;22.33;98971.97;5013661;28;20050;-71
2022/06/09 12:23:39;;;;;;;4.15;2.00;;;;;;;29.36;22.55;98971.16;5013609;28;20469;-71
2022/06/09 12:26:09;;;;;;;6.55;1.90;;;;;;;29.35;22.18;98955.25;5013963;28;20058;-71